Acucena, Brazil
Current Conditions -  °F | °C
As of 10:00 PM on Saturday 25 Oct 2014 (Local Time) from SBLS Reporting Station
Thunderstorm Thunderstorm  
Wind Chill: 64°   Ceiling: 7000
Heat Index: 64°   Visibility: 5mi
Dew Point: 63°   Wind: 15mph
Humidity: 94%   Direction: 230°SW
Pressure: NA   Gusts: NA
Location:  19.06°S, 42.54°W
Report Text: SBLS 260000Z 23013KT 8000 -TSRA SCT016 FEW018CB BKN070 18/17 Q1018
Loading
Personal Weather Stations






























Interactive Weather Map
Tropical Storm Tracking
New forecast layout! Learn more

10-Day Weather Forecast

Advertisements
Track Severe Weather on mobile